Startpagina
METAR-TAF:

METAR-TAF

Vliegvelden :

Évreux, Frankrijk

breedte: 49-01N, lengte: 001-13E, hoogte: 141 m

Actueel weer

Dit bericht is 21 minuten geleden gemaakt, om 20:00 UTC
Wind 3 kt uit het noordoosten
Temperatuur 18°C
Vochtigheid 45%
Druk 1018 hPa
Zicht 10 km of meer
geen wolken onder 1500 m en geen cumulonimbus

METAR: LFOE 312000Z AUTO 05003KT CAVOK 18/06 Q1018

Tijdstip: 22:21 (20:21 UTC)

Verwachting

Dit bericht is 6 uur en het 21 minuten geleden gemaakt, om 14:00 UTC
Verwachting geldig van 31 om 15 UTC tot 01 om 15 UTC
Wind 12 kt uit het oostnoordoosten met uitschieters tot 22 kt
Zicht 10 km of meer
geen wolken onder 1500 m en geen cumulonimbus
Wijzigt naar
van 31 om 19 UTC tot 31 om 21 UTC
Wind 6 kt uit het noordoosten
Wijzigt naar
van 01 om 08 UTC tot 01 om 10 UTC
Wind 12 kt uit het oostnoordoosten met uitschieters tot 22 kt

TAF: LFOE 311400Z 3115/0115 07012G22KT CAVOK BECMG 3119/3121 04006KT BECMG 0108/0110 06012G22KT

Waarnemingen en weersverwachtingen van meer dan 4000 vliegvelden (METAR en TAF).

De beschikbare stations zijn de gele en rode punten op de kaart.

Ga met uw muis naar het station om de naam te zien.

Klik dan om waarnemingen en weersverwachtingen te zien.

kaart wijzigen: klik op de groene knoppen met een zwart kruis om in te zoomen, op de groene knop met een streepje om uit te zoomen of op de groene pijlen voor aangrenzende kaarten.


METAR-TAF: